createdAt,value
2019-04-10T00:00:37.140Z,22.63
2019-04-10T00:03:06.708Z,24.07
2019-04-10T00:05:36.255Z,24.60
2019-04-10T00:08:06.196Z,23.67
2019-04-10T00:10:36.215Z,25.27
2019-04-10T00:13:06.689Z,24.87
2019-04-10T00:15:36.201Z,25.00
2019-04-10T00:18:05.673Z,24.97
2019-04-10T00:20:36.418Z,24.20
2019-04-10T00:23:06.803Z,23.00
2019-04-10T00:25:37.084Z,24.20
2019-04-10T00:28:08.040Z,25.20
2019-04-10T00:30:37.626Z,25.40
2019-04-10T00:33:08.195Z,26.67
2019-04-10T00:35:37.725Z,24.70
2019-04-10T00:38:07.237Z,23.27
2019-04-10T00:40:36.706Z,24.83
2019-04-10T00:43:06.603Z,24.17
2019-04-10T00:45:36.116Z,26.37
2019-04-10T00:48:05.988Z,25.53
2019-04-10T00:50:35.418Z,24.97
2019-04-10T00:53:05.110Z,26.57
2019-04-10T00:55:35.533Z,26.03
2019-04-10T00:58:05.814Z,25.80
2019-04-10T01:00:36.826Z,25.17
2019-04-10T01:03:07.424Z,25.90
2019-04-10T01:05:37.633Z,26.17
2019-04-10T01:08:07.160Z,25.50
2019-04-10T01:10:36.793Z,27.00
2019-04-10T01:13:06.275Z,31.67
2019-04-10T01:15:36.465Z,31.93
2019-04-10T01:18:06.761Z,31.17
2019-04-10T01:20:36.281Z,30.53
2019-04-10T01:23:05.922Z,31.87
2019-04-10T01:25:36.676Z,31.30
2019-04-10T01:28:06.783Z,33.23
2019-04-10T01:30:36.258Z,38.20
2019-04-10T01:33:06.182Z,39.43
2019-04-10T01:35:35.671Z,39.37
2019-04-10T01:38:06.468Z,41.70
2019-04-10T01:40:37.221Z,44.97
2019-04-10T01:43:12.886Z,42.17
2019-04-10T01:45:37.799Z,45.47
2019-04-10T01:48:07.915Z,44.60
2019-04-10T01:50:37.471Z,46.37
2019-04-10T01:53:06.892Z,46.10
2019-04-10T01:55:36.333Z,46.30
2019-04-10T01:58:10.649Z,45.40
2019-04-10T02:00:41.754Z,43.63
2019-04-10T02:03:11.885Z,45.20
2019-04-10T02:05:41.357Z,43.73
2019-04-10T02:08:13.551Z,43.50
2019-04-10T02:10:42.559Z,46.93
2019-04-10T02:13:11.975Z,44.27
2019-04-10T02:15:41.901Z,45.43
2019-04-10T02:18:11.298Z,45.97
2019-04-10T02:20:40.820Z,44.87
2019-04-10T02:23:10.252Z,44.50
2019-04-10T02:25:39.668Z,45.57
2019-04-10T02:28:09.100Z,46.43
2019-04-10T02:30:39.608Z,47.47
2019-04-10T02:33:10.696Z,46.80
2019-04-10T02:35:40.263Z,46.17
2019-04-10T02:38:29.125Z,44.63
2019-04-10T02:40:41.699Z,46.60
2019-04-10T02:43:12.560Z,45.07
2019-04-10T02:45:44.203Z,46.07
2019-04-10T02:48:14.915Z,44.10
2019-04-10T02:50:44.903Z,43.47
2019-04-10T02:53:15.336Z,44.50
2019-04-10T02:55:44.962Z,45.67
2019-04-10T02:58:15.928Z,48.23
2019-04-10T03:00:46.387Z,47.80
2019-04-10T03:03:15.987Z,44.17
2019-04-10T03:05:46.675Z,46.53
2019-04-10T03:08:17.371Z,47.03
2019-04-10T03:10:50.550Z,46.83
2019-04-10T03:13:19.676Z,44.77
2019-04-10T03:15:49.881Z,43.97
2019-04-10T03:18:20.888Z,48.10
2019-04-10T03:20:50.932Z,43.87
2019-04-10T03:23:21.099Z,46.57
2019-04-10T03:25:50.953Z,45.33
2019-04-10T03:28:20.499Z,43.30
2019-04-10T03:30:49.908Z,46.70
2019-04-10T03:33:26.127Z,46.70
2019-04-10T03:35:54.787Z,43.90
2019-04-10T03:38:24.302Z,43.90
2019-04-10T03:40:53.711Z,46.47
2019-04-10T03:43:23.139Z,46.93
2019-04-10T03:45:52.962Z,49.37
2019-04-10T03:48:23.055Z,48.57
2019-04-10T03:50:52.450Z,46.03
2019-04-10T03:53:22.313Z,47.60
2019-04-10T03:55:53.548Z,46.80
2019-04-10T03:58:23.267Z,48.53
2019-04-10T04:00:52.707Z,47.43
2019-04-10T04:03:22.179Z,46.80
2019-04-10T04:05:51.585Z,48.80
2019-04-10T04:08:21.576Z,47.77
2019-04-10T04:10:51.277Z,47.57
2019-04-10T04:13:21.655Z,48.10
2019-04-10T04:15:51.096Z,47.87
2019-04-10T04:18:21.386Z,49.07
2019-04-10T04:20:51.050Z,49.77
2019-04-10T04:23:21.475Z,50.03
2019-04-10T04:25:50.978Z,48.13
2019-04-10T04:28:20.393Z,49.93
2019-04-10T04:30:52.334Z,50.63
2019-04-10T04:33:21.205Z,48.00
2019-04-10T04:35:51.048Z,47.47
2019-04-10T04:38:20.527Z,49.00
2019-04-10T04:40:51.264Z,48.10
2019-04-10T04:43:21.807Z,48.13
2019-04-10T04:45:53.067Z,48.63
2019-04-10T04:48:22.523Z,49.63
2019-04-10T04:50:52.299Z,48.63
2019-04-10T04:53:21.736Z,47.83
2019-04-10T04:55:51.486Z,47.97
2019-04-10T04:58:20.945Z,47.93
2019-04-10T05:00:50.842Z,48.63
2019-04-10T05:03:20.774Z,45.90
2019-04-10T05:05:50.237Z,46.60
2019-04-10T05:08:19.687Z,45.97
2019-04-10T05:10:49.661Z,49.00
2019-04-10T05:13:19.146Z,47.70
2019-04-10T05:15:49.234Z,50.27
2019-04-10T05:18:19.051Z,49.17
2019-04-10T05:20:51.054Z,48.00
2019-04-10T05:23:20.542Z,50.43
2019-04-10T05:25:49.934Z,47.77
2019-04-10T05:28:20.394Z,47.43
2019-04-10T05:30:50.633Z,48.97
2019-04-10T05:33:20.510Z,45.67
2019-04-10T05:35:50.852Z,47.17
2019-04-10T05:38:20.785Z,46.77
2019-04-10T05:40:50.736Z,45.40
2019-04-10T05:43:20.131Z,46.13
2019-04-10T05:45:50.604Z,47.40
2019-04-10T05:48:22.491Z,48.90
2019-04-10T05:50:58.167Z,44.87
2019-04-10T05:53:22.574Z,48.10
2019-04-10T05:55:52.043Z,47.90
2019-04-10T05:58:21.819Z,49.43
2019-04-10T06:00:51.556Z,46.10
2019-04-10T06:03:20.944Z,49.37
2019-04-10T06:05:50.811Z,47.50
2019-04-10T06:08:20.343Z,46.20
2019-04-10T06:10:51.944Z,48.07
2019-04-10T06:13:22.703Z,46.30
2019-04-10T06:15:52.961Z,47.20
2019-04-10T06:18:22.884Z,45.63
2019-04-10T06:20:52.390Z,46.20
2019-04-10T06:23:21.795Z,46.63
2019-04-10T06:25:52.681Z,46.33
2019-04-10T06:28:24.290Z,47.73
2019-04-10T06:30:54.407Z,44.33
2019-04-10T06:33:24.350Z,47.50
2019-04-10T06:35:55.114Z,44.77
2019-04-10T06:38:26.915Z,43.23
2019-04-10T06:40:56.400Z,46.00
2019-04-10T06:43:25.897Z,45.60
2019-04-10T06:45:55.808Z,44.60
2019-04-10T06:48:25.914Z,44.37
2019-04-10T06:50:55.721Z,45.87
2019-04-10T06:53:25.125Z,46.87
2019-04-10T06:55:59.310Z,45.93
2019-04-10T06:58:36.550Z,42.57
2019-04-10T07:01:06.408Z,42.53
2019-04-10T07:03:49.494Z,42.83
2019-04-10T07:06:14.207Z,43.50
2019-04-10T07:08:38.233Z,42.50
2019-04-10T07:11:10.598Z,43.03
2019-04-10T07:13:40.447Z,44.07
2019-04-10T07:16:11.260Z,43.87
2019-04-10T07:18:41.268Z,42.23
2019-04-10T07:21:12.496Z,42.40
2019-04-10T07:23:42.834Z,42.77
2019-04-10T07:26:18.432Z,39.77
2019-04-10T07:28:45.910Z,41.63
2019-04-10T07:31:14.650Z,41.93
2019-04-10T07:36:14.088Z,39.83
2019-04-10T07:38:43.546Z,41.63
2019-04-10T07:41:19.416Z,41.40
2019-04-10T07:43:44.781Z,39.30
2019-04-10T07:46:15.235Z,39.57
2019-04-10T07:48:45.563Z,40.57
2019-04-10T07:51:15.089Z,39.93
2019-04-10T07:53:44.520Z,40.07
2019-04-10T07:56:18.994Z,38.60
2019-04-10T07:58:46.047Z,40.07
2019-04-10T08:01:16.186Z,38.97
2019-04-10T08:03:46.536Z,39.13
2019-04-10T08:06:16.120Z,40.63
2019-04-10T08:08:45.542Z,38.50
2019-04-10T08:11:15.481Z,40.30
2019-04-10T08:13:44.953Z,36.53
2019-04-10T08:16:14.861Z,39.00
2019-04-10T08:18:44.352Z,40.40
2019-04-10T08:21:13.831Z,37.27
2019-04-10T08:23:44.593Z,39.57
2019-04-10T08:26:14.315Z,40.23
2019-04-10T08:28:43.794Z,40.77
2019-04-10T08:31:13.202Z,38.03
2019-04-10T08:33:42.631Z,38.07
2019-04-10T08:36:12.980Z,37.43
2019-04-10T08:38:42.448Z,36.87
2019-04-10T08:41:12.898Z,36.40
2019-04-10T08:43:42.383Z,35.67
2019-04-10T08:46:12.792Z,36.33
2019-04-10T08:48:43.410Z,36.73
2019-04-10T08:51:12.878Z,35.13
2019-04-10T08:53:54.100Z,33.43
2019-04-10T08:56:22.693Z,34.77
2019-04-10T08:58:52.127Z,35.67
2019-04-10T09:01:21.531Z,34.67
2019-04-10T09:03:51.067Z,34.80
2019-04-10T09:06:20.450Z,36.43
2019-04-10T09:08:50.959Z,33.37
2019-04-10T09:11:26.227Z,34.77
2019-04-10T09:13:52.745Z,34.33
2019-04-10T09:16:22.603Z,33.80
2019-04-10T09:18:52.039Z,34.20
2019-04-10T09:21:21.644Z,32.93
2019-04-10T09:23:53.383Z,34.07
2019-04-10T09:26:22.439Z,35.77
2019-04-10T09:28:52.935Z,36.00
2019-04-10T09:31:23.912Z,34.53
2019-04-10T09:33:53.764Z,35.80
2019-04-10T09:36:23.309Z,35.57
2019-04-10T09:38:52.919Z,34.93
2019-04-10T09:41:22.337Z,34.50
2019-04-10T09:43:51.822Z,37.97
2019-04-10T09:46:21.382Z,35.87
2019-04-10T09:48:51.780Z,35.97
2019-04-10T09:51:21.518Z,35.63
2019-04-10T09:53:51.154Z,36.23
2019-04-10T09:56:21.371Z,36.33
2019-04-10T09:58:51.893Z,34.63
2019-04-10T10:01:22.055Z,34.60
2019-04-10T10:03:52.703Z,33.47
2019-04-10T10:06:29.589Z,32.30
2019-04-10T10:08:54.328Z,34.43
2019-04-10T10:11:24.304Z,32.80
2019-04-10T10:13:54.284Z,32.27
2019-04-10T10:16:23.991Z,31.57
2019-04-10T10:18:54.064Z,31.33
2019-04-10T10:21:24.135Z,31.17
2019-04-10T10:23:54.068Z,33.27
2019-04-10T10:26:23.956Z,32.13
2019-04-10T10:28:54.494Z,31.80
2019-04-10T10:31:24.192Z,33.43
2019-04-10T10:33:54.946Z,28.63
2019-04-10T10:36:34.693Z,28.90
2019-04-10T10:39:05.195Z,27.97
2019-04-10T10:41:26.764Z,28.67
2019-04-10T10:43:56.462Z,27.83
2019-04-10T10:46:27.206Z,28.20
2019-04-10T10:48:56.880Z,28.20
2019-04-10T10:51:26.771Z,28.00
2019-04-10T10:53:56.666Z,27.97
2019-04-10T10:56:27.044Z,30.57
2019-04-10T10:58:58.834Z,28.30
2019-04-10T11:01:27.635Z,28.43
2019-04-10T11:03:56.998Z,27.37
2019-04-10T11:06:26.862Z,26.70
2019-04-10T11:08:56.584Z,27.90
2019-04-10T11:11:25.971Z,28.40
2019-04-10T11:13:55.477Z,28.77
2019-04-10T11:16:24.953Z,29.23
2019-04-10T11:18:55.047Z,29.97
2019-04-10T11:21:24.790Z,29.47
2019-04-10T11:23:55.630Z,30.13
2019-04-10T11:26:25.714Z,28.20
2019-04-10T11:28:55.788Z,30.87
2019-04-10T11:31:25.476Z,30.00
2019-04-10T11:33:56.431Z,30.30
2019-04-10T11:36:26.128Z,29.37
2019-04-10T11:39:04.998Z,29.87
2019-04-10T11:41:29.495Z,27.57
2019-04-10T11:43:58.012Z,27.30
2019-04-10T11:46:29.829Z,27.37
2019-04-10T11:49:00.636Z,26.70
2019-04-10T11:51:31.582Z,25.67
2019-04-10T11:54:02.250Z,24.27
2019-04-10T11:56:33.923Z,24.77
2019-04-10T11:59:05.773Z,22.97
2019-04-10T12:01:36.242Z,24.77
2019-04-10T12:04:09.782Z,22.83
2019-04-10T12:06:40.335Z,23.80
2019-04-10T12:09:43.274Z,22.77
2019-04-10T12:11:42.515Z,20.50
2019-04-10T12:14:13.069Z,21.53
2019-04-10T12:16:42.562Z,20.93
2019-04-10T12:19:13.082Z,20.93
2019-04-10T12:21:42.586Z,19.73
2019-04-10T12:24:12.078Z,20.43
2019-04-10T12:26:42.335Z,20.13
2019-04-10T12:29:11.880Z,18.87
2019-04-10T12:31:41.928Z,20.33
2019-04-10T12:34:11.582Z,20.70
2019-04-10T12:36:42.742Z,19.87
2019-04-10T12:39:12.221Z,20.10
2019-04-10T12:41:41.699Z,19.67
2019-04-10T12:44:11.637Z,19.10
2019-04-10T12:46:41.506Z,18.63
2019-04-10T12:49:11.563Z,19.03
2019-04-10T12:51:41.549Z,20.00
2019-04-10T12:54:12.120Z,19.73
2019-04-10T12:56:42.137Z,19.70
2019-04-10T12:59:11.635Z,19.57
2019-04-10T13:01:41.121Z,18.97
2019-04-10T13:04:11.654Z,19.87
2019-04-10T13:06:42.268Z,18.00
2019-04-10T13:09:13.410Z,20.07
2019-04-10T13:11:44.765Z,19.17
2019-04-10T13:14:14.772Z,19.23
2019-04-10T13:16:44.671Z,20.67
2019-04-10T13:19:14.162Z,20.67
2019-04-10T13:21:44.394Z,18.70
2019-04-10T13:24:13.863Z,18.87
2019-04-10T13:26:43.273Z,20.23
2019-04-10T13:29:12.768Z,20.07
2019-04-10T13:31:42.542Z,20.17
2019-04-10T13:34:13.105Z,18.67
2019-04-10T13:36:42.587Z,20.20
2019-04-10T13:39:17.114Z,18.90
2019-04-10T13:41:45.591Z,18.83
2019-04-10T13:44:16.213Z,19.33
2019-04-10T13:46:45.846Z,18.37
2019-04-10T13:49:15.230Z,18.20
2019-04-10T13:51:45.626Z,18.40
2019-04-10T13:54:16.056Z,18.40
2019-04-10T13:56:46.809Z,17.27
2019-04-10T13:59:17.181Z,17.60
2019-04-10T14:01:46.594Z,17.47
2019-04-10T14:04:16.750Z,18.13
2019-04-10T14:06:48.869Z,16.83
2019-04-10T14:09:31.120Z,19.00
2019-04-10T14:11:51.078Z,18.43
2019-04-10T14:14:20.722Z,18.67
2019-04-10T14:16:50.124Z,18.87
2019-04-10T14:19:19.555Z,17.57
2019-04-10T14:21:49.706Z,19.67
2019-04-10T14:24:21.989Z,19.87
2019-04-10T14:27:00.094Z,19.93
2019-04-10T14:29:30.171Z,18.83
2019-04-10T14:32:01.393Z,20.33
2019-04-10T14:34:30.876Z,21.07
2019-04-10T14:37:01.146Z,21.23
2019-04-10T14:39:31.462Z,21.03
2019-04-10T14:42:00.955Z,20.63
2019-04-10T14:44:30.673Z,19.37
2019-04-10T14:47:00.271Z,21.17
2019-04-10T14:49:29.774Z,18.83
2019-04-10T14:51:59.208Z,17.33
2019-04-10T14:54:28.615Z,20.07
2019-04-10T14:56:58.809Z,20.27
2019-04-10T14:59:28.286Z,20.40
2019-04-10T15:01:58.031Z,21.87
2019-04-10T15:04:27.388Z,20.90
2019-04-10T15:06:57.580Z,21.07
2019-04-10T15:09:27.720Z,21.03
2019-04-10T15:11:57.374Z,20.83
2019-04-10T15:14:27.846Z,22.57
2019-04-10T15:17:02.844Z,24.00
2019-04-10T15:19:28.982Z,20.97
2019-04-10T15:21:59.085Z,21.70
2019-04-10T15:24:28.668Z,21.83
2019-04-10T15:26:58.101Z,21.67
2019-04-10T15:29:28.108Z,23.00
2019-04-10T15:31:57.838Z,22.63
2019-04-10T15:34:28.245Z,20.47
2019-04-10T15:36:58.501Z,21.77
2019-04-10T15:39:34.117Z,22.33
2019-04-10T15:41:59.522Z,22.37
2019-04-10T15:44:29.859Z,22.97
2019-04-10T15:47:10.642Z,21.37
2019-04-10T15:49:31.023Z,22.33
2019-04-10T15:52:01.561Z,21.17
2019-04-10T15:54:32.118Z,20.93
2019-04-10T15:57:02.630Z,18.07
2019-04-10T15:59:32.399Z,20.63
2019-04-10T16:02:01.840Z,21.97
2019-04-10T16:04:31.686Z,21.70
2019-04-10T16:07:02.112Z,19.50
2019-04-10T16:09:43.702Z,20.13
2019-04-10T16:12:14.508Z,22.20
2019-04-10T16:14:44.425Z,22.43
2019-04-10T16:17:19.304Z,20.03
2019-04-10T16:20:05.158Z,21.47
2019-04-10T16:22:40.567Z,23.83
2019-04-10T16:25:13.788Z,19.73
2019-04-10T16:27:43.348Z,20.27
2019-04-10T16:30:15.936Z,20.63
2019-04-10T16:32:46.717Z,21.73
2019-04-10T16:35:16.298Z,22.07
2019-04-10T16:37:45.711Z,24.53
2019-04-10T16:40:15.398Z,23.33
2019-04-10T16:42:44.998Z,23.90
2019-04-10T16:45:15.727Z,23.30
2019-04-10T16:47:46.271Z,23.70
2019-04-10T16:50:15.900Z,21.43
2019-04-10T16:52:45.347Z,23.43
2019-04-10T16:55:15.675Z,20.87
2019-04-10T16:57:45.425Z,23.00
2019-04-10T17:00:16.803Z,21.00
2019-04-10T17:02:46.556Z,23.93
2019-04-10T17:05:16.488Z,22.80
2019-04-10T17:07:46.074Z,20.20
2019-04-10T17:10:22.420Z,23.13
2019-04-10T17:12:48.399Z,22.00
2019-04-10T17:15:17.941Z,23.50
2019-04-10T17:17:47.422Z,22.97
2019-04-10T17:20:17.102Z,21.73
2019-04-10T17:22:49.182Z,22.37
2019-04-10T17:25:18.059Z,22.90
2019-04-10T17:27:47.961Z,23.67
2019-04-10T17:30:17.824Z,24.87
2019-04-10T17:32:47.342Z,23.30
2019-04-10T17:35:16.825Z,22.23
2019-04-10T17:37:47.696Z,22.00
2019-04-10T17:40:27.411Z,21.60
2019-04-10T17:42:48.876Z,22.47
2019-04-10T17:45:18.614Z,21.90
2019-04-10T17:47:49.241Z,21.83
2019-04-10T17:50:20.317Z,22.07
2019-04-10T17:52:51.157Z,22.07
2019-04-10T17:55:20.653Z,22.73
2019-04-10T17:57:53.162Z,24.23
2019-04-10T18:00:39.958Z,22.97
2019-04-10T18:03:09.426Z,23.07
2019-04-10T18:05:39.159Z,23.70
2019-04-10T18:08:08.711Z,22.10
2019-04-10T18:10:46.423Z,24.70
2019-04-10T18:13:09.277Z,24.47
2019-04-10T18:15:39.889Z,25.37
2019-04-10T18:18:09.416Z,24.33
2019-04-10T18:20:38.811Z,25.53
2019-04-10T18:23:09.234Z,25.70
2019-04-10T18:25:38.662Z,26.23
2019-04-10T18:28:09.513Z,27.73
2019-04-10T18:30:39.069Z,26.07
2019-04-10T18:33:08.508Z,26.57
2019-04-10T18:35:38.676Z,27.93
2019-04-10T18:38:09.036Z,27.77
2019-04-10T18:40:39.231Z,28.93
2019-04-10T18:43:09.718Z,28.40
2019-04-10T18:45:40.945Z,29.07
2019-04-10T18:48:10.461Z,27.17
2019-04-10T18:50:40.878Z,27.17
2019-04-10T18:53:10.989Z,28.77
2019-04-10T18:55:40.710Z,28.93
2019-04-10T18:58:11.734Z,27.87
2019-04-10T19:00:48.675Z,29.10
2019-04-10T19:06:38.938Z,28.20
2019-04-10T19:09:15.730Z,28.00
2019-04-10T19:11:40.106Z,27.90
2019-04-10T19:14:09.484Z,28.17
2019-04-10T19:16:39.599Z,29.57
2019-04-10T19:19:10.321Z,31.40
2019-04-10T19:21:39.917Z,30.60
2019-04-10T19:24:09.805Z,30.00
2019-04-10T19:26:39.919Z,32.97
2019-04-10T19:29:09.578Z,32.37
2019-04-10T19:31:40.601Z,32.57
2019-04-10T19:34:10.017Z,34.13
2019-04-10T19:36:39.799Z,31.80
2019-04-10T19:39:09.748Z,29.57
2019-04-10T19:41:41.447Z,32.77
2019-04-10T19:44:10.742Z,32.50
2019-04-10T19:46:40.197Z,31.83
2019-04-10T19:49:10.166Z,31.03
2019-04-10T19:51:40.537Z,30.37
2019-04-10T19:54:10.975Z,30.70
2019-04-10T19:56:40.622Z,29.93
2019-04-10T19:59:10.486Z,30.40
2019-04-10T20:01:40.262Z,30.87
2019-04-10T20:04:10.399Z,24.80
2019-04-10T20:06:40.587Z,24.30
2019-04-10T20:09:10.590Z,21.37
2019-04-10T20:11:44.901Z,23.37
2019-04-10T20:14:12.632Z,20.13
2019-04-10T20:16:42.382Z,23.57
2019-04-10T20:19:12.949Z,18.47
2019-04-10T20:21:42.449Z,19.80
2019-04-10T20:24:13.460Z,18.47
2019-04-10T20:26:45.420Z,16.23
2019-04-10T20:29:15.161Z,15.13
2019-04-10T20:31:45.688Z,13.93
2019-04-10T20:34:15.772Z,13.90
2019-04-10T20:36:45.141Z,15.33
2019-04-10T20:39:15.044Z,15.20
2019-04-10T20:41:51.191Z,14.93
2019-04-10T20:44:16.575Z,14.90
2019-04-10T20:46:46.563Z,14.87
2019-04-10T20:49:16.321Z,14.00
2019-04-10T20:51:46.019Z,14.80
2019-04-10T20:54:16.949Z,14.10
2019-04-10T20:56:46.591Z,14.67
2019-04-10T20:59:15.968Z,13.40
2019-04-10T21:01:45.372Z,12.50
2019-04-10T21:04:15.084Z,13.73
2019-04-10T21:06:45.960Z,12.80
2019-04-10T21:09:15.615Z,13.30
2019-04-10T21:11:58.802Z,12.37
2019-04-10T21:14:16.157Z,11.73
2019-04-10T21:16:45.583Z,10.90
2019-04-10T21:19:15.056Z,11.97
2019-04-10T21:21:44.479Z,11.13
2019-04-10T21:24:13.921Z,10.57
2019-04-10T21:26:44.426Z,10.37
2019-04-10T21:29:16.359Z,10.53
2019-04-10T21:31:53.293Z,10.50
2019-04-10T21:34:24.540Z,10.87
2019-04-10T21:36:53.952Z,11.00
2019-04-10T21:39:23.434Z,10.87
2019-04-10T21:41:53.540Z,11.23
2019-04-10T21:44:23.005Z,11.30
2019-04-10T21:46:53.001Z,10.23
2019-04-10T21:49:22.519Z,10.27
2019-04-10T21:51:51.929Z,11.57
2019-04-10T21:54:22.406Z,11.13
2019-04-10T21:56:52.015Z,10.57
2019-04-10T21:59:22.539Z,10.57
2019-04-10T22:01:52.881Z,10.37
2019-04-10T22:04:23.125Z,10.57
2019-04-10T22:07:11.788Z,10.63
2019-04-10T22:09:48.973Z,10.13
2019-04-10T22:12:30.710Z,10.87
2019-04-10T22:14:53.932Z,10.53
2019-04-10T22:17:23.419Z,10.90
2019-04-10T22:19:53.219Z,11.47
2019-04-10T22:22:22.619Z,10.70
2019-04-10T22:24:56.990Z,11.17
2019-04-10T22:27:27.931Z,11.13
2019-04-10T22:29:58.434Z,11.23
2019-04-10T22:32:29.036Z,11.87
2019-04-10T22:34:59.035Z,10.60
2019-04-10T22:37:28.505Z,11.30
2019-04-10T22:39:58.692Z,11.23
2019-04-10T22:42:36.595Z,10.53
2019-04-10T22:45:00.344Z,11.37
2019-04-10T22:47:29.933Z,10.83
2019-04-10T22:50:00.619Z,10.33
2019-04-10T22:52:30.293Z,11.13
2019-04-10T22:54:59.644Z,10.70
2019-04-10T22:57:29.348Z,11.10
2019-04-10T22:59:59.525Z,11.27
2019-04-10T23:02:29.940Z,11.43
2019-04-10T23:04:59.765Z,10.87
2019-04-10T23:07:30.200Z,10.87
2019-04-10T23:10:00.331Z,10.80
2019-04-10T23:12:30.028Z,10.73
2019-04-10T23:14:59.489Z,11.10
2019-04-10T23:17:28.892Z,10.03
2019-04-10T23:19:58.524Z,10.77
2019-04-10T23:22:28.004Z,10.93
2019-04-10T23:24:58.158Z,10.50
2019-04-10T23:27:28.274Z,10.70
2019-04-10T23:29:57.766Z,10.77
2019-04-10T23:32:27.183Z,10.37
2019-04-10T23:34:56.953Z,9.83
2019-04-10T23:37:26.723Z,10.43
2019-04-10T23:39:56.616Z,10.33
2019-04-10T23:42:28.192Z,10.87
2019-04-10T23:44:57.533Z,10.07
2019-04-10T23:47:26.917Z,10.30
2019-04-10T23:49:57.467Z,10.03
2019-04-10T23:52:27.604Z,10.00
2019-04-10T23:54:57.568Z,9.70
2019-04-10T23:57:27.439Z,9.73
2019-04-10T23:59:57.182Z,9.70
